sensor_id;sensor_type;location;lat;lon;timestamp;P1;durP1;ratioP1;P2;durP2;ratioP2
17564;SDS011;62994;52.126;5.596;2023-02-13T00:01:20;21.05;;;14.30;;
17564;SDS011;62994;52.126;5.596;2023-02-13T00:03:55;16.75;;;13.60;;
17564;SDS011;62994;52.126;5.596;2023-02-13T00:06:30;18.85;;;13.75;;
17564;SDS011;62994;52.126;5.596;2023-02-13T00:08:57;20.92;;;13.35;;
17564;SDS011;62994;52.126;5.596;2023-02-13T00:11:30;20.65;;;12.68;;
17564;SDS011;62994;52.126;5.596;2023-02-13T00:14:01;19.65;;;13.07;;
17564;SDS011;62994;52.126;5.596;2023-02-13T00:16:35;16.92;;;12.85;;
17564;SDS011;62994;52.126;5.596;2023-02-13T00:19:18;19.25;;;12.85;;
17564;SDS011;62994;52.126;5.596;2023-02-13T00:22:13;20.17;;;13.60;;
17564;SDS011;62994;52.126;5.596;2023-02-13T00:24:44;17.67;;;12.02;;
17564;SDS011;62994;52.126;5.596;2023-02-13T00:27:13;18.33;;;13.13;;
17564;SDS011;62994;52.126;5.596;2023-02-13T00:29:42;19.83;;;12.93;;
17564;SDS011;62994;52.126;5.596;2023-02-13T00:32:16;17.35;;;12.73;;
17564;SDS011;62994;52.126;5.596;2023-02-13T00:34:47;19.77;;;13.20;;
17564;SDS011;62994;52.126;5.596;2023-02-13T00:37:16;18.55;;;13.48;;
17564;SDS011;62994;52.126;5.596;2023-02-13T00:39:49;18.58;;;14.20;;
17564;SDS011;62994;52.126;5.596;2023-02-13T00:42:17;22.60;;;13.88;;
17564;SDS011;62994;52.126;5.596;2023-02-13T00:44:59;20.05;;;13.82;;
17564;SDS011;62994;52.126;5.596;2023-02-13T00:47:37;20.33;;;13.68;;
17564;SDS011;62994;52.126;5.596;2023-02-13T00:50:10;23.00;;;14.52;;
17564;SDS011;62994;52.126;5.596;2023-02-13T00:52:41;21.50;;;14.27;;
17564;SDS011;62994;52.126;5.596;2023-02-13T00:55:12;20.95;;;14.15;;
17564;SDS011;62994;52.126;5.596;2023-02-13T00:57:43;19.35;;;13.68;;
17564;SDS011;62994;52.126;5.596;2023-02-13T01:00:33;26.45;;;13.60;;
17564;SDS011;62994;52.126;5.596;2023-02-13T01:03:05;17.83;;;13.45;;
17564;SDS011;62994;52.126;5.596;2023-02-13T01:05:34;18.02;;;13.27;;
17564;SDS011;62994;52.126;5.596;2023-02-13T01:08:10;17.20;;;13.45;;
17564;SDS011;62994;52.126;5.596;2023-02-13T01:10:39;18.67;;;13.27;;
17564;SDS011;62994;52.126;5.596;2023-02-13T01:13:09;24.10;;;14.07;;
17564;SDS011;62994;52.126;5.596;2023-02-13T01:15:43;18.85;;;13.73;;
17564;SDS011;62994;52.126;5.596;2023-02-13T01:18:28;20.48;;;16.13;;
17564;SDS011;62994;52.126;5.596;2023-02-13T01:20:59;21.65;;;15.13;;
17564;SDS011;62994;52.126;5.596;2023-02-13T01:23:32;21.70;;;14.73;;
17564;SDS011;62994;52.126;5.596;2023-02-13T01:26:02;21.58;;;14.07;;
17564;SDS011;62994;52.126;5.596;2023-02-13T01:28:35;20.95;;;14.48;;
17564;SDS011;62994;52.126;5.596;2023-02-13T01:31:05;21.42;;;13.93;;
17564;SDS011;62994;52.126;5.596;2023-02-13T01:33:38;20.42;;;14.45;;
17564;SDS011;62994;52.126;5.596;2023-02-13T01:36:11;21.27;;;14.15;;
17564;SDS011;62994;52.126;5.596;2023-02-13T01:38:41;24.27;;;14.80;;
17564;SDS011;62994;52.126;5.596;2023-02-13T01:41:10;17.33;;;13.07;;
17564;SDS011;62994;52.126;5.596;2023-02-13T01:43:48;18.10;;;13.05;;
17564;SDS011;62994;52.126;5.596;2023-02-13T01:46:21;20.05;;;13.70;;
17564;SDS011;62994;52.126;5.596;2023-02-13T01:48:59;18.77;;;14.38;;
17564;SDS011;62994;52.126;5.596;2023-02-13T01:51:32;20.65;;;14.45;;
17564;SDS011;62994;52.126;5.596;2023-02-13T01:54:08;22.13;;;14.02;;
17564;SDS011;62994;52.126;5.596;2023-02-13T01:56:45;20.95;;;14.50;;
17564;SDS011;62994;52.126;5.596;2023-02-13T01:59:16;21.40;;;14.63;;
17564;SDS011;62994;52.126;5.596;2023-02-13T02:01:45;17.17;;;13.80;;
17564;SDS011;62994;52.126;5.596;2023-02-13T02:04:17;25.58;;;14.70;;
17564;SDS011;62994;52.126;5.596;2023-02-13T02:06:50;21.55;;;15.27;;
17564;SDS011;62994;52.126;5.596;2023-02-13T02:09:22;22.92;;;14.90;;
17564;SDS011;62994;52.126;5.596;2023-02-13T02:11:55;23.33;;;14.38;;
17564;SDS011;62994;52.126;5.596;2023-02-13T02:14:30;22.08;;;14.60;;
17564;SDS011;62994;52.126;5.596;2023-02-13T02:17:00;24.00;;;14.50;;
17564;SDS011;62994;52.126;5.596;2023-02-13T02:19:41;21.42;;;14.88;;
17564;SDS011;62994;52.126;5.596;2023-02-13T02:25:28;22.33;;;13.15;;
17564;SDS011;62994;52.126;5.596;2023-02-13T02:28:30;22.90;;;15.13;;
17564;SDS011;62994;52.126;5.596;2023-02-13T02:34:41;26.52;;;14.38;;
17564;SDS011;62994;52.126;5.596;2023-02-13T02:37:22;23.30;;;14.90;;
17564;SDS011;62994;52.126;5.596;2023-02-13T02:40:12;20.58;;;14.45;;
17564;SDS011;62994;52.126;5.596;2023-02-13T02:42:56;22.13;;;14.90;;
17564;SDS011;62994;52.126;5.596;2023-02-13T02:45:51;21.17;;;14.68;;
17564;SDS011;62994;52.126;5.596;2023-02-13T02:48:25;22.15;;;14.98;;
17564;SDS011;62994;52.126;5.596;2023-02-13T02:51:17;24.58;;;15.48;;
17564;SDS011;62994;52.126;5.596;2023-02-13T02:53:51;25.17;;;15.57;;
17564;SDS011;62994;52.126;5.596;2023-02-13T02:56:48;21.17;;;14.50;;
17564;SDS011;62994;52.126;5.596;2023-02-13T02:59:18;23.85;;;14.52;;
17564;SDS011;62994;52.126;5.596;2023-02-13T03:02:06;24.13;;;15.63;;
17564;SDS011;62994;52.126;5.596;2023-02-13T03:04:57;25.27;;;16.38;;
17564;SDS011;62994;52.126;5.596;2023-02-13T03:07:46;23.38;;;14.75;;
17564;SDS011;62994;52.126;5.596;2023-02-13T03:10:18;27.30;;;15.55;;
17564;SDS011;62994;52.126;5.596;2023-02-13T03:13:11;22.70;;;15.10;;
17564;SDS011;62994;52.126;5.596;2023-02-13T03:16:03;23.95;;;13.98;;
17564;SDS011;62994;52.126;5.596;2023-02-13T03:18:51;20.60;;;13.93;;
17564;SDS011;62994;52.126;5.596;2023-02-13T03:21:44;23.70;;;14.32;;
17564;SDS011;62994;52.126;5.596;2023-02-13T03:24:42;22.20;;;14.70;;
17564;SDS011;62994;52.126;5.596;2023-02-13T03:27:36;24.20;;;14.63;;
17564;SDS011;62994;52.126;5.596;2023-02-13T03:30:37;24.60;;;14.55;;
17564;SDS011;62994;52.126;5.596;2023-02-13T03:33:22;23.63;;;14.25;;
17564;SDS011;62994;52.126;5.596;2023-02-13T03:36:03;21.25;;;14.07;;
17564;SDS011;62994;52.126;5.596;2023-02-13T03:39:00;25.10;;;15.13;;
17564;SDS011;62994;52.126;5.596;2023-02-13T03:41:37;21.60;;;14.00;;
17564;SDS011;62994;52.126;5.596;2023-02-13T03:44:15;22.55;;;17.60;;
17564;SDS011;62994;52.126;5.596;2023-02-13T03:46:56;23.77;;;14.45;;
17564;SDS011;62994;52.126;5.596;2023-02-13T03:49:30;22.40;;;14.50;;
17564;SDS011;62994;52.126;5.596;2023-02-13T03:52:20;22.50;;;13.48;;
17564;SDS011;62994;52.126;5.596;2023-02-13T03:54:59;22.20;;;13.88;;
17564;SDS011;62994;52.126;5.596;2023-02-13T03:57:49;20.33;;;14.07;;
17564;SDS011;62994;52.126;5.596;2023-02-13T04:00:43;21.15;;;13.38;;
17564;SDS011;62994;52.126;5.596;2023-02-13T04:03:16;19.58;;;13.02;;
17564;SDS011;62994;52.126;5.596;2023-02-13T04:05:53;22.40;;;14.75;;
17564;SDS011;62994;52.126;5.596;2023-02-13T04:08:27;24.50;;;14.80;;
17564;SDS011;62994;52.126;5.596;2023-02-13T04:11:07;23.77;;;14.65;;
17564;SDS011;62994;52.126;5.596;2023-02-13T04:13:41;20.92;;;13.88;;
17564;SDS011;62994;52.126;5.596;2023-02-13T04:16:16;22.40;;;13.90;;
17564;SDS011;62994;52.126;5.596;2023-02-13T04:18:54;22.35;;;14.50;;
17564;SDS011;62994;52.126;5.596;2023-02-13T04:21:27;24.40;;;14.60;;
17564;SDS011;62994;52.126;5.596;2023-02-13T04:24:07;18.95;;;13.25;;
17564;SDS011;62994;52.126;5.596;2023-02-13T04:26:46;24.10;;;14.77;;
17564;SDS011;62994;52.126;5.596;2023-02-13T04:29:19;30.35;;;15.02;;
17564;SDS011;62994;52.126;5.596;2023-02-13T04:31:56;24.95;;;15.73;;
17564;SDS011;62994;52.126;5.596;2023-02-13T04:34:23;20.73;;;14.23;;
17564;SDS011;62994;52.126;5.596;2023-02-13T04:36:53;28.02;;;16.38;;
17564;SDS011;62994;52.126;5.596;2023-02-13T04:39:20;26.30;;;14.90;;
17564;SDS011;62994;52.126;5.596;2023-02-13T04:41:53;27.42;;;15.13;;
17564;SDS011;62994;52.126;5.596;2023-02-13T04:44:29;27.55;;;15.55;;
17564;SDS011;62994;52.126;5.596;2023-02-13T04:46:59;22.80;;;14.43;;
17564;SDS011;62994;52.126;5.596;2023-02-13T04:49:26;24.25;;;13.88;;
17564;SDS011;62994;52.126;5.596;2023-02-13T04:51:55;23.38;;;14.63;;
17564;SDS011;62994;52.126;5.596;2023-02-13T04:54:25;22.15;;;14.02;;
17564;SDS011;62994;52.126;5.596;2023-02-13T04:56:54;21.98;;;14.23;;
17564;SDS011;62994;52.126;5.596;2023-02-13T04:59:21;21.98;;;14.38;;
17564;SDS011;62994;52.126;5.596;2023-02-13T05:01:51;24.92;;;14.48;;
17564;SDS011;62994;52.126;5.596;2023-02-13T05:04:21;25.85;;;15.30;;
17564;SDS011;62994;52.126;5.596;2023-02-13T05:06:49;22.45;;;14.05;;
17564;SDS011;62994;52.126;5.596;2023-02-13T05:09:19;25.83;;;15.02;;
17564;SDS011;62994;52.126;5.596;2023-02-13T05:11:51;22.73;;;14.68;;
17564;SDS011;62994;52.126;5.596;2023-02-13T05:14:29;25.15;;;16.48;;
17564;SDS011;62994;52.126;5.596;2023-02-13T05:17:01;25.05;;;15.68;;
17564;SDS011;62994;52.126;5.596;2023-02-13T05:19:35;27.58;;;16.50;;
17564;SDS011;62994;52.126;5.596;2023-02-13T05:22:04;25.55;;;18.30;;
17564;SDS011;62994;52.126;5.596;2023-02-13T05:24:49;25.33;;;15.82;;
17564;SDS011;62994;52.126;5.596;2023-02-13T05:27:20;27.25;;;16.27;;
17564;SDS011;62994;52.126;5.596;2023-02-13T05:29:49;24.90;;;15.48;;
17564;SDS011;62994;52.126;5.596;2023-02-13T05:32:19;28.13;;;16.55;;
17564;SDS011;62994;52.126;5.596;2023-02-13T05:34:51;28.58;;;15.98;;
17564;SDS011;62994;52.126;5.596;2023-02-13T05:37:22;26.35;;;16.20;;
17564;SDS011;62994;52.126;5.596;2023-02-13T05:39:49;26.27;;;14.98;;
17564;SDS011;62994;52.126;5.596;2023-02-13T05:42:16;27.70;;;15.95;;
17564;SDS011;62994;52.126;5.596;2023-02-13T05:44:44;27.75;;;16.50;;
17564;SDS011;62994;52.126;5.596;2023-02-13T05:47:13;29.00;;;15.60;;
17564;SDS011;62994;52.126;5.596;2023-02-13T05:49:43;27.05;;;16.60;;
17564;SDS011;62994;52.126;5.596;2023-02-13T05:52:19;27.58;;;16.05;;
17564;SDS011;62994;52.126;5.596;2023-02-13T05:54:46;24.23;;;15.20;;
17564;SDS011;62994;52.126;5.596;2023-02-13T05:57:16;24.27;;;15.15;;
17564;SDS011;62994;52.126;5.596;2023-02-13T05:59:43;27.50;;;16.08;;
17564;SDS011;62994;52.126;5.596;2023-02-13T06:02:16;24.27;;;15.55;;
17564;SDS011;62994;52.126;5.596;2023-02-13T06:04:59;29.52;;;17.73;;
17564;SDS011;62994;52.126;5.596;2023-02-13T06:07:35;28.40;;;16.75;;
17564;SDS011;62994;52.126;5.596;2023-02-13T06:10:05;25.30;;;15.98;;
17564;SDS011;62994;52.126;5.596;2023-02-13T06:12:49;26.38;;;16.85;;
17564;SDS011;62994;52.126;5.596;2023-02-13T06:15:22;27.02;;;16.77;;
17564;SDS011;62994;52.126;5.596;2023-02-13T06:17:58;27.52;;;16.48;;
17564;SDS011;62994;52.126;5.596;2023-02-13T06:20:39;27.30;;;17.20;;
17564;SDS011;62994;52.126;5.596;2023-02-13T06:23:08;31.40;;;16.88;;
17564;SDS011;62994;52.126;5.596;2023-02-13T06:25:39;26.77;;;16.63;;
17564;SDS011;62994;52.126;5.596;2023-02-13T06:28:12;30.33;;;16.45;;
17564;SDS011;62994;52.126;5.596;2023-02-13T06:30:41;28.00;;;16.45;;
17564;SDS011;62994;52.126;5.596;2023-02-13T06:33:09;28.30;;;17.08;;
17564;SDS011;62994;52.126;5.596;2023-02-13T06:35:38;33.45;;;17.92;;
17564;SDS011;62994;52.126;5.596;2023-02-13T06:38:07;35.83;;;18.25;;
17564;SDS011;62994;52.126;5.596;2023-02-13T06:40:36;25.92;;;15.80;;
17564;SDS011;62994;52.126;5.596;2023-02-13T06:43:15;27.02;;;16.90;;
17564;SDS011;62994;52.126;5.596;2023-02-13T06:45:45;33.42;;;18.65;;
17564;SDS011;62994;52.126;5.596;2023-02-13T06:48:13;29.05;;;18.10;;
17564;SDS011;62994;52.126;5.596;2023-02-13T06:50:42;24.88;;;16.60;;
17564;SDS011;62994;52.126;5.596;2023-02-13T06:53:10;25.33;;;17.08;;
17564;SDS011;62994;52.126;5.596;2023-02-13T06:55:39;30.35;;;18.67;;
17564;SDS011;62994;52.126;5.596;2023-02-13T06:58:13;32.60;;;17.52;;
17564;SDS011;62994;52.126;5.596;2023-02-13T07:00:42;31.77;;;18.20;;
17564;SDS011;62994;52.126;5.596;2023-02-13T07:03:13;29.25;;;16.95;;
17564;SDS011;62994;52.126;5.596;2023-02-13T07:05:43;28.77;;;17.95;;
17564;SDS011;62994;52.126;5.596;2023-02-13T07:08:22;28.95;;;17.42;;
17564;SDS011;62994;52.126;5.596;2023-02-13T07:10:50;28.92;;;16.48;;
17564;SDS011;62994;52.126;5.596;2023-02-13T07:13:17;29.95;;;17.48;;
17564;SDS011;62994;52.126;5.596;2023-02-13T07:15:46;28.55;;;17.52;;
17564;SDS011;62994;52.126;5.596;2023-02-13T07:18:18;30.13;;;17.85;;
17564;SDS011;62994;52.126;5.596;2023-02-13T07:20:57;35.33;;;18.75;;
17564;SDS011;62994;52.126;5.596;2023-02-13T07:23:24;33.90;;;18.65;;
17564;SDS011;62994;52.126;5.596;2023-02-13T07:25:54;31.23;;;18.55;;
17564;SDS011;62994;52.126;5.596;2023-02-13T07:28:26;30.48;;;18.95;;
17564;SDS011;62994;52.126;5.596;2023-02-13T07:31:02;31.08;;;19.08;;
17564;SDS011;62994;52.126;5.596;2023-02-13T07:33:32;35.47;;;18.92;;
17564;SDS011;62994;52.126;5.596;2023-02-13T07:36:01;33.75;;;19.17;;
17564;SDS011;62994;52.126;5.596;2023-02-13T07:38:28;33.17;;;19.40;;
17564;SDS011;62994;52.126;5.596;2023-02-13T07:40:58;36.15;;;20.20;;
17564;SDS011;62994;52.126;5.596;2023-02-13T07:43:28;31.75;;;18.90;;
17564;SDS011;62994;52.126;5.596;2023-02-13T07:45:57;38.17;;;19.73;;
17564;SDS011;62994;52.126;5.596;2023-02-13T07:48:28;36.63;;;22.50;;
17564;SDS011;62994;52.126;5.596;2023-02-13T07:51:00;35.90;;;21.55;;
17564;SDS011;62994;52.126;5.596;2023-02-13T07:53:32;37.20;;;20.50;;
17564;SDS011;62994;52.126;5.596;2023-02-13T07:56:05;41.47;;;22.70;;
17564;SDS011;62994;52.126;5.596;2023-02-13T07:58:34;35.30;;;20.27;;
17564;SDS011;62994;52.126;5.596;2023-02-13T08:01:04;33.50;;;20.15;;
17564;SDS011;62994;52.126;5.596;2023-02-13T08:03:39;38.47;;;19.98;;
17564;SDS011;62994;52.126;5.596;2023-02-13T08:06:10;33.25;;;20.33;;
17564;SDS011;62994;52.126;5.596;2023-02-13T08:08:41;32.13;;;20.23;;
17564;SDS011;62994;52.126;5.596;2023-02-13T08:11:12;36.13;;;20.98;;
17564;SDS011;62994;52.126;5.596;2023-02-13T08:14:06;31.40;;;19.05;;
17564;SDS011;62994;52.126;5.596;2023-02-13T08:16:40;29.58;;;19.33;;
17564;SDS011;62994;52.126;5.596;2023-02-13T08:19:24;38.78;;;21.38;;
17564;SDS011;62994;52.126;5.596;2023-02-13T08:21:53;29.85;;;18.92;;
17564;SDS011;62994;52.126;5.596;2023-02-13T08:24:28;30.02;;;19.13;;
17564;SDS011;62994;52.126;5.596;2023-02-13T08:27:01;33.88;;;19.55;;
17564;SDS011;62994;52.126;5.596;2023-02-13T08:29:29;33.17;;;19.65;;
17564;SDS011;62994;52.126;5.596;2023-02-13T08:31:58;33.10;;;19.90;;
17564;SDS011;62994;52.126;5.596;2023-02-13T08:34:28;37.92;;;20.52;;
17564;SDS011;62994;52.126;5.596;2023-02-13T08:36:59;32.00;;;20.45;;
17564;SDS011;62994;52.126;5.596;2023-02-13T08:39:27;32.78;;;19.48;;
17564;SDS011;62994;52.126;5.596;2023-02-13T08:41:57;31.80;;;19.05;;
17564;SDS011;62994;52.126;5.596;2023-02-13T08:44:24;32.38;;;19.30;;
17564;SDS011;62994;52.126;5.596;2023-02-13T08:46:54;34.30;;;18.95;;
17564;SDS011;62994;52.126;5.596;2023-02-13T08:49:26;26.88;;;17.13;;
17564;SDS011;62994;52.126;5.596;2023-02-13T08:51:53;30.98;;;18.55;;
17564;SDS011;62994;52.126;5.596;2023-02-13T08:54:23;28.08;;;18.30;;
17564;SDS011;62994;52.126;5.596;2023-02-13T08:56:57;32.15;;;19.20;;
17564;SDS011;62994;52.126;5.596;2023-02-13T08:59:28;28.35;;;18.10;;
17564;SDS011;62994;52.126;5.596;2023-02-13T09:02:04;27.20;;;17.92;;
17564;SDS011;62994;52.126;5.596;2023-02-13T09:04:36;28.60;;;17.38;;
17564;SDS011;62994;52.126;5.596;2023-02-13T09:07:03;27.13;;;18.73;;
17564;SDS011;62994;52.126;5.596;2023-02-13T09:09:39;27.90;;;18.75;;
17564;SDS011;62994;52.126;5.596;2023-02-13T09:12:09;28.02;;;19.48;;
17564;SDS011;62994;52.126;5.596;2023-02-13T09:14:38;25.92;;;18.10;;
17564;SDS011;62994;52.126;5.596;2023-02-13T09:17:10;27.65;;;17.92;;
17564;SDS011;62994;52.126;5.596;2023-02-13T09:19:45;23.60;;;17.40;;
17564;SDS011;62994;52.126;5.596;2023-02-13T09:22:23;26.45;;;17.75;;
17564;SDS011;62994;52.126;5.596;2023-02-13T09:24:55;26.50;;;18.25;;
17564;SDS011;62994;52.126;5.596;2023-02-13T09:27:31;25.48;;;17.38;;
17564;SDS011;62994;52.126;5.596;2023-02-13T09:30:06;23.23;;;16.80;;
17564;SDS011;62994;52.126;5.596;2023-02-13T09:32:37;23.23;;;17.13;;
17564;SDS011;62994;52.126;5.596;2023-02-13T09:35:12;25.80;;;16.08;;
17564;SDS011;62994;52.126;5.596;2023-02-13T09:37:39;21.98;;;16.48;;
17564;SDS011;62994;52.126;5.596;2023-02-13T09:40:19;22.33;;;16.42;;
17564;SDS011;62994;52.126;5.596;2023-02-13T09:42:55;22.95;;;17.30;;
17564;SDS011;62994;52.126;5.596;2023-02-13T09:45:33;27.08;;;17.50;;
17564;SDS011;62994;52.126;5.596;2023-02-13T09:48:09;22.00;;;16.42;;
17564;SDS011;62994;52.126;5.596;2023-02-13T09:50:44;21.10;;;15.85;;
17564;SDS011;62994;52.126;5.596;2023-02-13T09:53:19;22.85;;;17.13;;
17564;SDS011;62994;52.126;5.596;2023-02-13T09:55:54;20.77;;;16.45;;
17564;SDS011;62994;52.126;5.596;2023-02-13T09:58:35;22.35;;;15.90;;
17564;SDS011;62994;52.126;5.596;2023-02-13T10:01:19;23.30;;;16.65;;
17564;SDS011;62994;52.126;5.596;2023-02-13T10:04:06;19.50;;;15.13;;
17564;SDS011;62994;52.126;5.596;2023-02-13T10:06:45;20.92;;;15.55;;
17564;SDS011;62994;52.126;5.596;2023-02-13T10:09:24;18.90;;;15.25;;
17564;SDS011;62994;52.126;5.596;2023-02-13T10:12:15;26.08;;;15.88;;
17564;SDS011;62994;52.126;5.596;2023-02-13T10:14:57;19.33;;;17.30;;
17564;SDS011;62994;52.126;5.596;2023-02-13T10:17:40;20.65;;;16.15;;
17564;SDS011;62994;52.126;5.596;2023-02-13T10:20:16;21.75;;;16.25;;
17564;SDS011;62994;52.126;5.596;2023-02-13T10:22:53;18.08;;;14.18;;
17564;SDS011;62994;52.126;5.596;2023-02-13T10:25:34;22.05;;;15.48;;
17564;SDS011;62994;52.126;5.596;2023-02-13T10:28:15;21.05;;;14.75;;
17564;SDS011;62994;52.126;5.596;2023-02-13T10:30:54;18.58;;;14.43;;
17564;SDS011;62994;52.126;5.596;2023-02-13T10:33:25;19.10;;;15.02;;
17564;SDS011;62994;52.126;5.596;2023-02-13T10:36:02;17.95;;;14.77;;
17564;SDS011;62994;52.126;5.596;2023-02-13T10:38:34;18.10;;;14.95;;
17564;SDS011;62994;52.126;5.596;2023-02-13T10:41:17;17.00;;;14.00;;
17564;SDS011;62994;52.126;5.596;2023-02-13T10:44:00;18.73;;;14.32;;
17564;SDS011;62994;52.126;5.596;2023-02-13T10:46:51;20.00;;;14.38;;
17564;SDS011;62994;52.126;5.596;2023-02-13T10:49:44;18.13;;;15.05;;
17564;SDS011;62994;52.126;5.596;2023-02-13T10:52:26;19.15;;;14.57;;
17564;SDS011;62994;52.126;5.596;2023-02-13T10:55:13;20.08;;;14.73;;
17564;SDS011;62994;52.126;5.596;2023-02-13T10:58:05;17.83;;;14.27;;
17564;SDS011;62994;52.126;5.596;2023-02-13T11:00:48;17.98;;;14.77;;
17564;SDS011;62994;52.126;5.596;2023-02-13T11:03:23;19.08;;;14.68;;
17564;SDS011;62994;52.126;5.596;2023-02-13T11:05:53;15.75;;;14.05;;
17564;SDS011;62994;52.126;5.596;2023-02-13T11:08:32;18.75;;;14.93;;
17564;SDS011;62994;52.126;5.596;2023-02-13T11:11:01;18.05;;;14.52;;
17564;SDS011;62994;52.126;5.596;2023-02-13T11:13:36;15.75;;;14.07;;
17564;SDS011;62994;52.126;5.596;2023-02-13T11:16:07;18.15;;;14.85;;
17564;SDS011;62994;52.126;5.596;2023-02-13T11:18:54;15.25;;;13.65;;
17564;SDS011;62994;52.126;5.596;2023-02-13T11:21:31;16.90;;;14.57;;
17564;SDS011;62994;52.126;5.596;2023-02-13T11:24:18;17.10;;;14.05;;
17564;SDS011;62994;52.126;5.596;2023-02-13T11:27:01;17.15;;;14.15;;
17564;SDS011;62994;52.126;5.596;2023-02-13T11:29:34;16.55;;;14.65;;
17564;SDS011;62994;52.126;5.596;2023-02-13T11:32:27;18.60;;;14.52;;
17564;SDS011;62994;52.126;5.596;2023-02-13T11:35:15;19.45;;;14.43;;
17564;SDS011;62994;52.126;5.596;2023-02-13T11:40:42;16.77;;;14.10;;
17564;SDS011;62994;52.126;5.596;2023-02-13T11:43:19;15.57;;;13.55;;
17564;SDS011;62994;52.126;5.596;2023-02-13T11:49:00;15.70;;;13.48;;
17564;SDS011;62994;52.126;5.596;2023-02-13T11:51:44;15.90;;;14.10;;
17564;SDS011;62994;52.126;5.596;2023-02-13T11:54:29;16.05;;;13.90;;
17564;SDS011;62994;52.126;5.596;2023-02-13T11:57:08;17.75;;;13.70;;
17564;SDS011;62994;52.126;5.596;2023-02-13T11:59:55;16.58;;;14.00;;
17564;SDS011;62994;52.126;5.596;2023-02-13T12:02:30;16.73;;;13.52;;
17564;SDS011;62994;52.126;5.596;2023-02-13T12:05:23;16.63;;;13.30;;
17564;SDS011;62994;52.126;5.596;2023-02-13T12:07:56;16.15;;;12.90;;
17564;SDS011;62994;52.126;5.596;2023-02-13T12:10:35;16.30;;;13.18;;
17564;SDS011;62994;52.126;5.596;2023-02-13T12:13:12;17.63;;;13.73;;
17564;SDS011;62994;52.126;5.596;2023-02-13T12:15:47;14.20;;;12.75;;
17564;SDS011;62994;52.126;5.596;2023-02-13T12:18:20;14.90;;;12.75;;
17564;SDS011;62994;52.126;5.596;2023-02-13T12:21:12;15.30;;;12.43;;
17564;SDS011;62994;52.126;5.596;2023-02-13T12:23:54;13.75;;;12.35;;
17564;SDS011;62994;52.126;5.596;2023-02-13T12:26:30;12.98;;;11.85;;
17564;SDS011;62994;52.126;5.596;2023-02-13T12:32:01;13.75;;;12.43;;
17564;SDS011;62994;52.126;5.596;2023-02-13T12:34:48;14.77;;;13.45;;
17564;SDS011;62994;52.126;5.596;2023-02-13T12:37:54;14.32;;;12.35;;
17564;SDS011;62994;52.126;5.596;2023-02-13T12:46:47;13.48;;;12.18;;
17564;SDS011;62994;52.126;5.596;2023-02-13T12:49:57;13.68;;;12.07;;
17564;SDS011;62994;52.126;5.596;2023-02-13T12:52:45;12.45;;;11.25;;
17564;SDS011;62994;52.126;5.596;2023-02-13T12:58:31;13.77;;;12.38;;
17564;SDS011;62994;52.126;5.596;2023-02-13T13:01:35;12.77;;;11.57;;
17564;SDS011;62994;52.126;5.596;2023-02-13T13:04:29;13.45;;;11.98;;
17564;SDS011;62994;52.126;5.596;2023-02-13T13:07:22;13.07;;;11.90;;
17564;SDS011;62994;52.126;5.596;2023-02-13T13:13:17;14.23;;;12.93;;
17564;SDS011;62994;52.126;5.596;2023-02-13T13:15:51;13.35;;;12.07;;
17564;SDS011;62994;52.126;5.596;2023-02-13T13:18:31;13.82;;;12.52;;
17564;SDS011;62994;52.126;5.596;2023-02-13T13:21:20;13.52;;;12.43;;
17564;SDS011;62994;52.126;5.596;2023-02-13T13:23:57;14.63;;;13.13;;
17564;SDS011;62994;52.126;5.596;2023-02-13T13:26:31;13.38;;;12.18;;
17564;SDS011;62994;52.126;5.596;2023-02-13T13:29:03;13.75;;;12.32;;
17564;SDS011;62994;52.126;5.596;2023-02-13T13:31:38;14.43;;;12.98;;
17564;SDS011;62994;52.126;5.596;2023-02-13T13:34:09;14.60;;;13.13;;
17564;SDS011;62994;52.126;5.596;2023-02-13T13:36:47;13.30;;;12.00;;
17564;SDS011;62994;52.126;5.596;2023-02-13T13:39:21;13.10;;;12.00;;
17564;SDS011;62994;52.126;5.596;2023-02-13T13:42:15;14.13;;;12.70;;
17564;SDS011;62994;52.126;5.596;2023-02-13T13:45:17;13.15;;;11.98;;
17564;SDS011;62994;52.126;5.596;2023-02-13T13:47:59;12.90;;;11.82;;
17564;SDS011;62994;52.126;5.596;2023-02-13T13:51:06;11.88;;;10.90;;
17564;SDS011;62994;52.126;5.596;2023-02-13T13:53:41;12.45;;;11.35;;
17564;SDS011;62994;52.126;5.596;2023-02-13T13:57:02;12.65;;;11.55;;
17564;SDS011;62994;52.126;5.596;2023-02-13T14:03:11;12.00;;;11.00;;
17564;SDS011;62994;52.126;5.596;2023-02-13T14:06:06;13.00;;;11.85;;
17564;SDS011;62994;52.126;5.596;2023-02-13T14:08:54;12.73;;;11.63;;
17564;SDS011;62994;52.126;5.596;2023-02-13T14:11:32;12.60;;;11.43;;
17564;SDS011;62994;52.126;5.596;2023-02-13T14:20:36;13.77;;;12.48;;
17564;SDS011;62994;52.126;5.596;2023-02-13T14:26:30;12.63;;;11.65;;
17564;SDS011;62994;52.126;5.596;2023-02-13T14:29:20;12.00;;;10.98;;
17564;SDS011;62994;52.126;5.596;2023-02-13T14:32:17;13.05;;;11.75;;
17564;SDS011;62994;52.126;5.596;2023-02-13T14:34:51;12.30;;;11.20;;
17564;SDS011;62994;52.126;5.596;2023-02-13T14:37:36;12.82;;;11.52;;
17564;SDS011;62994;52.126;5.596;2023-02-13T14:40:28;12.45;;;11.13;;
17564;SDS011;62994;52.126;5.596;2023-02-13T14:42:58;11.55;;;10.55;;
17564;SDS011;62994;52.126;5.596;2023-02-13T14:45:30;12.40;;;11.10;;
17564;SDS011;62994;52.126;5.596;2023-02-13T14:48:03;13.77;;;12.48;;
17564;SDS011;62994;52.126;5.596;2023-02-13T14:50:39;11.68;;;10.55;;
17564;SDS011;62994;52.126;5.596;2023-02-13T14:53:20;12.85;;;11.57;;
17564;SDS011;62994;52.126;5.596;2023-02-13T14:55:55;11.73;;;10.75;;
17564;SDS011;62994;52.126;5.596;2023-02-13T14:58:25;11.60;;;10.40;;
17564;SDS011;62994;52.126;5.596;2023-02-13T15:00:59;11.70;;;10.60;;
17564;SDS011;62994;52.126;5.596;2023-02-13T15:03:33;12.32;;;11.13;;
17564;SDS011;62994;52.126;5.596;2023-02-13T15:06:11;11.55;;;10.50;;
17564;SDS011;62994;52.126;5.596;2023-02-13T15:08:55;12.00;;;10.80;;
17564;SDS011;62994;52.126;5.596;2023-02-13T15:11:34;11.10;;;10.10;;
17564;SDS011;62994;52.126;5.596;2023-02-13T15:14:19;12.30;;;11.05;;
17564;SDS011;62994;52.126;5.596;2023-02-13T15:17:01;11.05;;;9.98;;
17564;SDS011;62994;52.126;5.596;2023-02-13T15:19:31;10.35;;;9.38;;
17564;SDS011;62994;52.126;5.596;2023-02-13T15:22:05;10.85;;;9.77;;
17564;SDS011;62994;52.126;5.596;2023-02-13T15:24:40;10.35;;;9.43;;
17564;SDS011;62994;52.126;5.596;2023-02-13T15:27:17;10.50;;;9.50;;
17564;SDS011;62994;52.126;5.596;2023-02-13T15:29:57;12.35;;;11.02;;
17564;SDS011;62994;52.126;5.596;2023-02-13T15:32:32;13.45;;;11.73;;
17564;SDS011;62994;52.126;5.596;2023-02-13T15:35:09;16.13;;;11.00;;
17564;SDS011;62994;52.126;5.596;2023-02-13T15:37:50;11.60;;;10.60;;
17564;SDS011;62994;52.126;5.596;2023-02-13T15:40:24;13.80;;;10.80;;
17564;SDS011;62994;52.126;5.596;2023-02-13T15:42:55;11.48;;;10.20;;
17564;SDS011;62994;52.126;5.596;2023-02-13T15:45:27;14.75;;;10.43;;
17564;SDS011;62994;52.126;5.596;2023-02-13T15:48:03;11.90;;;10.48;;
17564;SDS011;62994;52.126;5.596;2023-02-13T15:50:42;13.25;;;9.95;;
17564;SDS011;62994;52.126;5.596;2023-02-13T15:53:14;12.68;;;9.95;;
17564;SDS011;62994;52.126;5.596;2023-02-13T15:55:54;10.95;;;9.82;;
17564;SDS011;62994;52.126;5.596;2023-02-13T15:58:30;15.45;;;11.25;;